Time;durP1;ratioP1;P1;durP2;ratioP2;P2;SDS_P1;SDS_P2;PMS_P1;PMS_P2;Temp;Humidity;BMP_temperature;BMP_pressure;BME280_temperature;BME280_humidity;BME280_pressure;Samples;Min_cycle;Max_cycle;Signal;HPM_P1;HPM_P2
2023/02/19 00:01:08;;;;;;;93.97;54.15;;;;;;;10.52;55.04;99820.25;5031486;28;20474;-79
2023/02/19 00:03:35;;;;;;;78.50;45.72;;;;;;;9.99;55.49;99750.44;5031276;28;20036;-80
2023/02/19 00:06:01;;;;;;;68.38;41.05;;;;;;;9.77;54.53;99709.78;5031335;28;20043;-79
2023/02/19 00:08:29;;;;;;;66.78;39.97;;;;;;;10.17;55.24;99761.59;5031260;28;20566;-79
2023/02/19 00:10:59;;;;;;;56.17;35.72;;;;;;;10.04;55.32;99742.03;5029934;28;20025;-79
2023/02/19 00:13:25;;;;;;;49.08;32.25;;;;;;;7.82;55.33;99390.53;5030095;28;20482;-79
2023/02/19 00:15:50;;;;;;;45.40;31.88;;;;;;;9.69;55.88;99674.72;5031295;28;20057;-79
2023/02/19 00:18:15;;;;;;;41.50;32.95;;;;;;;10.03;55.57;99758.84;5031444;28;20075;-79
2023/02/19 00:20:41;;;;;;;44.92;31.20;;;;;;;10.02;54.86;99728.19;5031016;28;20047;-79
2023/02/19 00:23:06;;;;;;;42.45;31.75;;;;;;;9.73;55.07;99682.13;5031012;28;20054;-79
2023/02/19 00:25:36;;;;;;;43.65;32.50;;;;;;;10.39;55.08;99791.75;5031301;28;20107;-79
2023/02/19 00:28:02;;;;;;;43.28;31.73;;;;;;;10.08;55.29;99749.44;5029891;28;20064;-79
2023/02/19 00:30:27;;;;;;;45.08;30.80;;;;;;;9.45;55.45;99652.66;5029769;28;20064;-79
2023/02/19 00:32:54;;;;;;;50.58;36.95;;;;;;;10.34;55.14;99787.97;5029860;28;20414;-79
2023/02/19 00:35:19;;;;;;;45.75;31.27;;;;;;;10.20;54.93;99752.56;5031210;28;20025;-79
2023/02/19 00:37:45;;;;;;;42.38;31.92;;;;;;;9.63;55.26;99672.72;5031144;28;20516;-79
2023/02/19 00:40:10;;;;;;;39.20;27.75;;;;;;;9.99;55.23;99721.44;5031056;28;20517;-79
2023/02/19 00:42:36;;;;;;;36.47;28.13;;;;;;;9.99;55.53;99729.34;5030970;28;20021;-79
2023/02/19 00:45:01;;;;;;;36.90;27.58;;;;;;;8.49;55.88;99494.63;5031024;28;20108;-79
2023/02/19 00:47:27;;;;;;;33.50;26.00;;;;;;;9.16;55.68;99589.16;5030945;28;20034;-79
2023/02/19 00:49:52;;;;;;;41.17;29.80;;;;;;;9.85;55.70;99704.50;5029794;28;20112;-79
2023/02/19 00:52:17;;;;;;;35.80;26.00;;;;;;;9.80;55.37;99691.00;5030803;28;20029;-79
2023/02/19 00:54:43;;;;;;;37.13;27.92;;;;;;;9.38;56.10;99630.63;5032963;28;20100;-79
2023/02/19 00:57:08;;;;;;;36.28;24.75;;;;;;;9.45;56.09;99644.75;5034812;28;20478;-79
2023/02/19 00:59:35;;;;;;;35.38;27.10;;;;;;;9.38;55.52;99625.34;5034849;28;20040;-79
2023/02/19 01:02:01;;;;;;;35.30;25.83;;;;;;;9.81;56.03;99697.91;5034582;28;20021;-80
2023/02/19 01:04:26;;;;;;;38.45;28.42;;;;;;;9.78;55.85;99700.06;5034376;28;20036;-79
2023/02/19 01:06:52;;;;;;;36.10;27.35;;;;;;;9.49;55.87;99647.88;5033116;28;20026;-79
2023/02/19 01:09:19;;;;;;;36.28;26.38;;;;;;;9.43;55.74;99633.56;5034542;28;20057;-79
2023/02/19 01:11:44;;;;;;;36.97;26.90;;;;;;;9.09;56.20;99581.13;5034638;28;20036;-79
2023/02/19 01:14:09;;;;;;;37.72;27.00;;;;;;;9.25;56.38;99601.34;5034447;28;20025;-79
2023/02/19 01:16:35;;;;;;;37.00;27.38;;;;;;;9.49;56.33;99634.69;5034303;28;20030;-79
2023/02/19 01:19:00;;;;;;;34.42;26.25;;;;;;;9.26;56.63;99620.59;5034456;28;20036;-79
2023/02/19 01:21:27;;;;;;;34.30;27.00;;;;;;;9.57;56.20;99646.03;5034203;28;20045;-79
2023/02/19 01:23:54;;;;;;;36.20;27.10;;;;;;;9.66;55.96;99662.69;5032935;28;20029;-79
2023/02/19 01:26:22;;;;;;;40.70;31.00;;;;;;;9.89;56.37;99710.25;5034314;28;20041;-79
2023/02/19 01:28:48;;;;;;;41.88;31.90;;;;;;;9.53;56.14;99665.00;5034350;28;20029;-79
2023/02/19 01:31:19;;;;;;;45.25;32.78;;;;;;;9.87;56.13;99715.69;5033827;28;20029;-79
2023/02/19 01:33:47;;;;;;;47.13;34.25;;;;;;;9.86;56.43;99710.59;5032641;28;20035;-79
2023/02/19 01:36:13;;;;;;;41.55;31.30;;;;;;;9.74;56.11;99691.69;5032837;28;20029;-79
2023/02/19 01:38:39;;;;;;;41.83;29.30;;;;;;;9.05;56.29;99592.16;5032696;28;20042;-79
2023/02/19 01:41:06;;;;;;;45.80;33.33;;;;;;;9.45;56.08;99652.66;5034037;28;20017;-79
2023/02/19 01:43:34;;;;;;;55.53;39.83;;;;;;;9.32;56.19;99633.91;5033928;28;20528;-79
2023/02/19 01:46:00;;;;;;;53.53;39.13;;;;;;;9.48;56.29;99673.41;5033670;28;20112;-79
2023/02/19 01:48:30;;;;;;;56.30;37.53;;;;;;;9.77;56.42;99706.34;5033617;28;20032;-80
2023/02/19 01:51:10;;;;;;;62.90;42.50;;;;;;;8.96;56.37;99572.09;5033630;28;20056;-80
2023/02/19 01:53:40;;;;;;;65.75;44.17;;;;;;;9.76;56.37;99694.13;5033581;28;20489;-80
2023/02/19 01:56:07;;;;;;;72.10;47.40;;;;;;;9.45;56.44;99647.41;5033935;28;20494;-80
2023/02/19 01:58:35;;;;;;;69.35;48.65;;;;;;;9.32;55.94;99644.47;5034101;28;20514;-80
2023/02/19 02:01:03;;;;;;;51.90;39.63;;;;;;;9.70;56.31;99693.00;5033485;28;20391;-80
2023/02/19 02:03:29;;;;;;;54.58;39.97;;;;;;;8.86;56.04;99575.69;5033613;28;20024;-80
2023/02/19 02:06:00;;;;;;;58.83;42.13;;;;;;;8.87;55.67;99564.16;5033223;28;20434;-79
2023/02/19 02:11:11;;;;;;;43.67;32.92;;;;;;;9.12;55.68;99622.91;5033559;28;20037;-80
2023/02/19 02:13:39;;;;;;;42.47;31.58;;;;;;;9.02;55.70;99603.03;5032086;28;20033;-80
2023/02/19 02:16:16;;;;;;;41.90;33.08;;;;;;;9.66;55.64;99702.25;5033437;28;20104;-80
2023/02/19 02:18:48;;;;;;;43.78;34.88;;;;;;;9.67;55.60;99695.97;5033445;28;20112;-79
2023/02/19 02:21:34;;;;;;;49.08;35.20;;;;;;;9.63;55.65;99694.63;5033013;28;20105;-79
2023/02/19 02:24:14;;;;;;;53.13;36.38;;;;;;;9.65;55.43;99689.19;5033129;28;20119;-79
2023/02/19 02:26:57;;;;;;;42.33;31.92;;;;;;;9.25;55.74;99654.03;5031869;28;20033;-79
2023/02/19 02:29:54;;;;;;;42.63;32.45;;;;;;;8.75;55.78;99557.59;5031515;28;20561;-79
2023/02/19 02:32:25;;;;;;;38.65;30.17;;;;;;;9.60;55.20;99691.50;5031781;28;20059;-79
2023/02/19 02:34:55;;;;;;;38.13;26.83;;;;;;;9.61;55.49;99688.72;5032813;28;20100;-79
2023/02/19 02:37:22;;;;;;;33.30;24.83;;;;;;;9.44;55.41;99663.38;5031632;28;20025;-79
2023/02/19 02:39:48;;;;;;;29.02;23.05;;;;;;;9.14;55.13;99623.56;5031530;28;20090;-79
2023/02/19 02:42:26;;;;;;;29.83;22.70;;;;;;;9.05;55.28;99600.06;5032697;28;20025;-79
2023/02/19 02:47:51;;;;;;;32.28;24.52;;;;;;;9.48;55.29;99688.41;5032780;28;20098;-79
2023/02/19 02:50:23;;;;;;;37.15;28.40;;;;;;;9.31;54.97;99663.06;5032518;28;20036;-79
2023/02/19 02:55:45;;;;;;;37.63;27.20;;;;;;;9.65;54.78;99713.75;5032634;28;20083;-79
2023/02/19 02:58:12;;;;;;;37.15;26.60;;;;;;;9.29;55.04;99665.06;5031058;28;20056;-79
2023/02/19 03:03:27;;;;;;;32.40;23.55;;;;;;;8.88;54.81;99594.78;5032385;28;20037;-79
2023/02/19 03:05:57;;;;;;;35.40;25.33;;;;;;;8.66;54.90;99579.66;5032252;28;20026;-79
2023/02/19 03:08:27;;;;;;;29.90;22.20;;;;;;;9.55;55.04;99703.38;5032274;28;20029;-79
2023/02/19 03:10:55;;;;;;;31.52;23.70;;;;;;;9.54;55.14;99703.56;5031007;28;20494;-80
2023/02/19 03:19:18;;;;;;;31.92;22.08;;;;;;;9.27;54.71;99677.56;5032182;28;20083;-79
2023/02/19 03:21:50;;;;;;;32.15;23.77;;;;;;;9.29;54.89;99686.94;5031697;28;20438;-79
2023/02/19 03:27:04;;;;;;;32.25;22.73;;;;;;;8.89;55.15;99625.38;5032187;28;20239;-79
2023/02/19 03:29:34;;;;;;;31.88;24.48;;;;;;;8.18;54.73;99497.06;5031887;28;20130;-79
2023/02/19 03:32:05;;;;;;;33.92;25.60;;;;;;;9.39;54.85;99692.88;5031646;28;20029;-81
2023/02/19 03:34:41;;;;;;;33.85;24.48;;;;;;;9.56;54.49;99722.66;5031771;28;20155;-80
2023/02/19 03:37:24;;;;;;;28.60;22.95;;;;;;;8.89;54.85;99616.66;5031914;28;20082;-80
2023/02/19 03:39:50;;;;;;;33.85;23.65;;;;;;;9.13;54.87;99660.63;5031896;28;20418;-80
2023/02/19 03:42:52;;;;;;;31.33;23.15;;;;;;;9.51;54.83;99720.53;5031717;28;20100;-80
2023/02/19 03:45:24;;;;;;;35.15;24.83;;;;;;;9.52;54.81;99719.53;5030383;28;20039;-80
2023/02/19 03:48:11;;;;;;;26.67;20.52;;;;;;;9.50;54.77;99721.50;5031674;28;20068;-80
2023/02/19 03:50:49;;;;;;;30.27;22.52;;;;;;;9.48;55.06;99720.84;5030313;28;20091;-80
2023/02/19 03:53:42;;;;;;;27.02;20.95;;;;;;;9.47;54.90;99718.38;5030249;28;20414;-80
2023/02/19 03:56:19;;;;;;;20.23;15.23;;;;;;;9.52;54.99;99716.06;5028814;28;20037;-80
2023/02/19 03:58:54;;;;;;;22.90;18.00;;;;;;;9.29;54.49;99679.03;5031506;28;20406;-80
2023/02/19 04:01:38;;;;;;;19.30;16.02;;;;;;;8.89;54.52;99609.59;5029988;28;20044;-79
2023/02/19 04:04:10;;;;;;;18.77;14.27;;;;;;;8.33;54.81;99517.44;5031285;28;20029;-80
2023/02/19 04:06:37;;;;;;;19.67;15.00;;;;;;;9.61;54.38;99727.44;5031385;28;20032;-80
2023/02/19 04:09:07;;;;;;;16.92;14.40;;;;;;;9.61;54.45;99714.25;5031341;28;20104;-80
2023/02/19 04:11:33;;;;;;;18.23;14.25;;;;;;;9.24;54.27;99650.56;5031364;28;20080;-80
2023/02/19 04:14:08;;;;;;;17.63;14.20;;;;;;;9.62;54.34;99710.63;5030175;28;20037;-80
2023/02/19 04:16:38;;;;;;;20.30;14.55;;;;;;;8.89;54.40;99606.13;5031254;28;20095;-80
2023/02/19 04:19:11;;;;;;;23.65;14.43;;;;;;;9.63;54.40;99714.91;5031252;28;20029;-81
2023/02/19 04:21:39;;;;;;;19.17;14.48;;;;;;;9.46;54.63;99687.75;5031340;28;20041;-80
2023/02/19 04:24:11;;;;;;;18.10;14.52;;;;;;;9.63;54.21;99710.44;5030160;28;20033;-80
2023/02/19 04:26:37;;;;;;;18.75;14.98;;;;;;;9.14;54.04;99630.66;5030898;28;20499;-81
2023/02/19 04:29:03;;;;;;;17.95;14.30;;;;;;;9.24;54.42;99657.66;5031939;28;20556;-80
2023/02/19 04:31:31;;;;;;;19.17;14.10;;;;;;;7.40;53.98;99356.50;5035234;28;20030;-80
2023/02/19 04:33:56;;;;;;;25.67;18.75;;;;;;;9.20;54.04;99648.44;5035274;28;20112;-80
2023/02/19 04:36:21;;;;;;;19.58;15.70;;;;;;;8.89;54.24;99601.69;5035213;28;20104;-79
2023/02/19 04:38:47;;;;;;;21.75;16.50;;;;;;;9.72;54.32;99745.56;5035201;28;20029;-80
2023/02/19 04:41:12;;;;;;;20.08;15.32;;;;;;;9.23;54.21;99654.19;5035244;28;20030;-80
2023/02/19 04:43:38;;;;;;;20.20;16.15;;;;;;;8.99;53.89;99621.78;5034839;28;20104;-80
2023/02/19 04:46:03;;;;;;;22.55;16.13;;;;;;;9.45;54.03;99694.84;5033581;28;20108;-80
2023/02/19 04:48:29;;;;;;;24.20;17.70;;;;;;;9.39;54.14;99697.31;5034860;28;20083;-80
2023/02/19 04:50:54;;;;;;;24.20;18.60;;;;;;;9.12;54.14;99661.59;5034734;28;20489;-80
2023/02/19 04:53:20;;;;;;;23.10;17.70;;;;;;;8.87;54.42;99652.88;5034704;28;20413;-80
2023/02/19 04:55:46;;;;;;;21.10;15.52;;;;;;;9.19;54.21;99702.09;5033460;28;20150;-80
2023/02/19 04:58:12;;;;;;;28.42;20.38;;;;;;;9.57;54.35;99769.94;5034629;28;20467;-80
2023/02/19 05:00:37;;;;;;;23.15;17.70;;;;;;;9.12;54.37;99724.81;5034676;28;20025;-80
2023/02/19 05:03:03;;;;;;;23.88;18.58;;;;;;;9.09;54.46;99722.53;5034572;28;20470;-80
2023/02/19 05:05:28;;;;;;;21.88;16.23;;;;;;;9.10;54.66;99727.63;5033149;28;20030;-80
2023/02/19 05:07:54;;;;;;;18.23;14.55;;;;;;;8.68;54.76;99655.81;5034313;28;20033;-79
2023/02/19 05:10:19;;;;;;;18.85;15.07;;;;;;;8.47;54.34;99657.09;5034528;28;20053;-80
2023/02/19 05:12:44;;;;;;;23.42;16.83;;;;;;;9.43;54.75;99791.69;5033291;28;20041;-80
2023/02/19 05:15:10;;;;;;;32.45;23.13;;;;;;;8.78;54.86;99693.34;5034490;28;20414;-80
2023/02/19 05:17:35;;;;;;;29.15;21.67;;;;;;;8.38;54.84;99646.72;5034422;28;20026;-80
2023/02/19 05:20:01;;;;;;;29.95;21.58;;;;;;;8.87;54.87;99735.31;5034395;28;20083;-80
2023/02/19 05:22:28;;;;;;;32.10;23.20;;;;;;;9.42;54.61;99805.03;5033215;28;20496;-80
2023/02/19 05:24:54;;;;;;;24.23;18.25;;;;;;;9.39;54.61;99815.91;5031672;28;20164;-80
2023/02/19 05:27:19;;;;;;;27.08;18.75;;;;;;;9.01;54.82;99767.28;5033057;28;20108;-80
2023/02/19 05:29:44;;;;;;;25.27;18.60;;;;;;;8.83;54.91;99730.53;5032977;28;20418;-80
2023/02/19 05:32:10;;;;;;;30.70;21.17;;;;;;;9.01;55.05;99791.81;5032965;28;20033;-80
2023/02/19 05:34:35;;;;;;;26.58;19.45;;;;;;;8.82;55.12;99740.25;5033002;28;20171;-80
2023/02/19 05:37:00;;;;;;;27.88;19.75;;;;;;;9.11;55.14;99820.63;5031600;28;20418;-80
2023/02/19 05:39:26;;;;;;;21.20;16.38;;;;;;;9.14;55.29;99812.41;5031266;28;20034;-80
2023/02/19 05:41:51;;;;;;;19.25;15.45;;;;;;;8.98;55.09;99780.78;5032561;28;20120;-80
2023/02/19 05:44:16;;;;;;;22.15;14.30;;;;;;;7.22;55.20;99514.19;5031291;28;20525;-80
2023/02/19 05:46:42;;;;;;;21.38;15.90;;;;;;;8.04;55.13;99644.09;5031272;28;20029;-80
2023/02/19 05:49:07;;;;;;;22.23;18.25;;;;;;;9.38;55.14;99903.84;5032553;28;20044;-80
2023/02/19 05:51:33;;;;;;;25.00;17.33;;;;;;;8.76;55.30;99753.22;5032513;28;20410;-80
2023/02/19 05:53:58;;;;;;;23.77;18.00;;;;;;;8.64;55.45;99742.16;5032385;28;20043;-80
2023/02/19 05:56:39;;;;;;;26.58;20.52;;;;;;;9.38;55.21;99856.41;5031432;28;20410;-80
2023/02/19 05:59:20;;;;;;;32.77;20.47;;;;;;;9.34;55.81;99869.09;5032750;28;20104;-79
2023/02/19 06:01:46;;;;;;;26.38;19.95;;;;;;;9.35;55.60;99868.09;5031187;28;20272;-80
2023/02/19 06:04:12;;;;;;;32.13;19.77;;;;;;;8.99;55.34;99803.50;5031248;28;20468;-80
2023/02/19 06:06:39;;;;;;;34.78;20.33;;;;;;;9.16;55.91;99839.41;5032338;28;20457;-80
2023/02/19 06:09:05;;;;;;;31.83;20.13;;;;;;;8.80;55.50;99771.16;5030918;28;20025;-80
2023/02/19 06:11:31;;;;;;;31.27;22.35;;;;;;;9.04;55.72;99806.47;5030865;28;20029;-80
2023/02/19 06:13:56;;;;;;;33.00;24.35;;;;;;;9.12;55.88;99822.28;5032178;28;20101;-80
2023/02/19 06:16:22;;;;;;;35.03;25.17;;;;;;;9.32;55.38;99852.63;5032453;28;20032;-80
2023/02/19 06:18:48;;;;;;;37.17;26.83;;;;;;;8.70;55.68;99728.38;5032140;28;20033;-80
2023/02/19 06:21:14;;;;;;;35.72;25.83;;;;;;;9.36;55.53;99838.13;4991300;28;1133007;-80
2023/02/19 06:23:41;;;;;;;45.35;25.65;;;;;;;9.13;54.90;99787.06;5031672;28;20040;-80
2023/02/19 06:26:07;;;;;;;37.17;25.73;;;;;;;9.59;55.74;99858.56;5033120;28;20528;-80
2023/02/19 06:28:33;;;;;;;38.03;25.55;;;;;;;8.83;55.47;99718.19;5031744;28;20034;-80
2023/02/19 06:30:58;;;;;;;35.22;26.08;;;;;;;9.34;55.82;99823.47;5032796;28;20025;-80
2023/02/19 06:33:26;;;;;;;39.28;27.33;;;;;;;9.12;55.69;99785.41;5032854;28;20104;-80
2023/02/19 06:35:52;;;;;;;41.42;27.10;;;;;;;9.72;55.53;99851.03;5031576;28;20465;-80
2023/02/19 06:38:19;;;;;;;45.08;30.60;;;;;;;9.17;55.21;99770.75;5032796;28;20013;-80
2023/02/19 06:40:45;;;;;;;47.13;29.52;;;;;;;9.29;55.55;99768.63;5031494;28;20064;-80
2023/02/19 06:43:10;;;;;;;51.33;30.35;;;;;;;9.10;55.37;99738.16;5032786;28;20493;-80
2023/02/19 06:45:36;;;;;;;49.53;31.52;;;;;;;9.19;55.45;99770.59;5031502;28;20095;-80
2023/02/19 06:48:01;;;;;;;56.28;31.85;;;;;;;9.66;55.58;99828.78;5031563;28;20030;-80
2023/02/19 06:50:26;;;;;;;50.13;30.52;;;;;;;9.33;55.65;99762.03;5031325;28;20024;-80
2023/02/19 06:52:52;;;;;;;52.13;34.83;;;;;;;9.29;55.78;99750.19;5030116;28;20076;-80
2023/02/19 06:55:17;;;;;;;57.00;34.03;;;;;;;9.33;55.31;99751.50;5031217;28;20069;-80
2023/02/19 06:57:42;;;;;;;53.47;32.08;;;;;;;10.05;55.00;99857.94;5031339;28;20084;-80
2023/02/19 07:00:09;;;;;;;52.95;31.92;;;;;;;9.70;54.90;99797.63;5032536;28;20057;-80
2023/02/19 07:02:34;;;;;;;59.13;34.08;;;;;;;9.85;54.71;99814.44;5032608;28;20021;-80
2023/02/19 07:04:59;;;;;;;50.47;31.58;;;;;;;9.97;54.90;99799.09;5032361;28;20399;-80
2023/02/19 07:07:25;;;;;;;49.17;34.83;;;;;;;9.88;54.79;99793.81;5032238;28;20049;-80
2023/02/19 07:09:50;;;;;;;49.92;33.72;;;;;;;9.71;54.51;99755.28;5032204;28;20040;-80
2023/02/19 07:12:16;;;;;;;57.10;33.35;;;;;;;9.77;54.26;99759.88;5032424;28;20102;-80
2023/02/19 07:14:41;;;;;;;48.67;32.67;;;;;;;9.63;54.65;99707.81;5032222;28;20064;-80
2023/02/19 07:17:06;;;;;;;60.53;33.72;;;;;;;9.63;54.55;99699.91;5032112;28;20029;-80
2023/02/19 07:19:32;;;;;;;44.63;31.40;;;;;;;10.06;54.42;99771.69;5032175;28;20026;-80
2023/02/19 07:21:57;;;;;;;54.33;33.20;;;;;;;10.31;54.48;99788.31;5032013;28;20512;-81
2023/02/19 07:24:22;;;;;;;50.63;32.45;;;;;;;10.43;53.92;99814.19;5032133;28;20042;-80
2023/02/19 07:26:48;;;;;;;54.13;33.05;;;;;;;10.34;53.75;99761.56;5031984;28;20037;-80
2023/02/19 07:29:13;;;;;;;29.75;21.65;;;;;;;10.92;53.04;99845.66;5032116;28;20029;-80
2023/02/19 07:31:39;;;;;;;17.27;10.20;;;;;;;10.46;50.75;99699.53;5032502;28;20034;-80
2023/02/19 07:34:05;;;;;;;12.18;4.40;;;;;;;11.15;48.07;99724.19;5030768;28;20132;-80
2023/02/19 07:36:31;;;;;;;7.88;3.35;;;;;;;12.23;46.14;99804.06;5031973;28;20030;-80
2023/02/19 07:38:58;;;;;;;6.20;4.03;;;;;;;12.84;45.39;99828.50;5031892;28;20025;-80
2023/02/19 07:41:24;;;;;;;9.18;4.15;;;;;;;12.60;44.53;99767.84;5030483;28;20017;-81
2023/02/19 07:43:50;;;;;;;11.82;4.88;;;;;;;12.71;42.50;99711.78;5030516;28;20175;-80
2023/02/19 07:46:15;;;;;;;12.88;4.30;;;;;;;13.54;41.83;99801.34;5031752;28;20566;-81
2023/02/19 07:48:43;;;;;;;8.15;4.30;;;;;;;13.64;41.59;99788.56;5031904;28;20060;-80
2023/02/19 07:51:17;;;;;;;10.95;5.38;;;;;;;13.79;40.75;99772.56;5031449;28;20419;-80
2023/02/19 07:53:43;;;;;;;7.90;4.80;;;;;;;14.31;40.27;99808.47;5031373;28;20029;-81
2023/02/19 07:56:10;;;;;;;6.25;3.97;;;;;;;14.10;40.15;99769.50;5030324;28;20025;-80
2023/02/19 07:58:36;;;;;;;12.95;4.63;;;;;;;14.54;39.79;99809.03;5031489;28;20029;-80
2023/02/19 08:01:10;;;;;;;13.55;4.45;;;;;;;14.67;39.12;99813.59;5031526;28;20036;-80
2023/02/19 08:03:37;;;;;;;13.98;5.10;;;;;;;13.95;39.14;99689.97;5031674;28;20115;-81
2023/02/19 08:06:03;;;;;;;9.45;5.40;;;;;;;14.27;39.33;99708.94;5030146;28;20491;-81
2023/02/19 08:08:29;;;;;;;9.13;5.00;;;;;;;14.76;38.93;99756.56;5031417;28;20095;-81
2023/02/19 08:13:42;;;;;;;13.43;5.65;;;;;;;14.83;38.74;99757.41;5031397;28;20032;-80
2023/02/19 08:16:14;;;;;;;17.80;5.15;;;;;;;14.60;37.96;99709.09;5029967;28;20029;-81
2023/02/19 08:18:40;;;;;;;7.28;4.40;;;;;;;14.88;38.11;99724.94;5031033;28;20029;-80
2023/02/19 08:21:05;;;;;;;8.50;5.00;;;;;;;14.99;38.03;99723.53;5029611;28;20594;-81
2023/02/19 08:23:31;;;;;;;6.78;5.07;;;;;;;13.14;37.60;99421.00;5030992;28;20167;-81
2023/02/19 08:25:58;;;;;;;12.15;5.45;;;;;;;15.59;37.04;99799.75;5029990;28;20017;-81
2023/02/19 08:28:23;;;;;;;15.32;5.07;;;;;;;15.66;36.82;99792.59;5031223;28;20033;-81
2023/02/19 08:30:49;;;;;;;16.80;5.40;;;;;;;15.71;36.65;99795.47;5029817;28;20034;-81
2023/02/19 08:33:17;;;;;;;10.88;6.78;;;;;;;15.77;36.58;99781.34;5031125;28;20022;-81
2023/02/19 08:35:42;;;;;;;12.43;5.40;;;;;;;15.82;36.18;99794.84;5031338;28;20497;-80
2023/02/19 08:38:10;;;;;;;11.63;6.35;;;;;;;15.92;35.83;99786.44;5031250;28;20029;-80
2023/02/19 08:40:37;;;;;;;11.98;6.22;;;;;;;15.42;36.05;99700.84;5029945;28;20024;-81
2023/02/19 08:43:11;;;;;;;8.40;6.20;;;;;;;16.04;35.76;99783.97;5031135;28;20486;-80
2023/02/19 08:45:38;;;;;;;10.48;4.25;;;;;;;15.87;35.96;99764.94;5031119;28;20108;-80
2023/02/19 08:48:04;;;;;;;11.10;4.88;;;;;;;15.87;36.00;99755.13;5029710;28;20033;-80
2023/02/19 08:50:29;;;;;;;8.82;4.53;;;;;;;15.63;35.48;99694.53;5031281;28;20461;-80
2023/02/19 08:52:55;;;;;;;6.07;4.47;;;;;;;16.02;34.97;99762.88;5030735;28;20022;-81
2023/02/19 08:55:20;;;;;;;5.97;4.47;;;;;;;15.76;35.50;99721.13;5029683;28;20032;-80
2023/02/19 08:57:46;;;;;;;8.85;4.78;;;;;;;16.16;35.32;99753.81;5029793;28;20398;-79
2023/02/19 09:00:12;;;;;;;5.82;4.43;;;;;;;16.48;35.39;99780.59;5031188;28;20081;-81
2023/02/19 09:02:38;;;;;;;5.30;4.20;;;;;;;15.71;35.71;99651.72;5030906;28;20009;-80
2023/02/19 09:05:07;;;;;;;6.63;4.30;;;;;;;16.26;35.39;99741.91;5030747;28;20552;-80
2023/02/19 09:07:32;;;;;;;8.60;4.47;;;;;;;16.49;34.63;99752.94;5031011;28;20108;-81
2023/02/19 09:09:59;;;;;;;8.38;4.93;;;;;;;16.43;34.60;99743.13;5030820;28;20100;-81
2023/02/19 09:12:26;;;;;;;6.65;3.95;;;;;;;16.72;34.45;99779.94;5030750;28;20410;-81
2023/02/19 09:14:51;;;;;;;6.57;4.05;;;;;;;16.38;34.24;99725.09;5030220;28;20037;-80
2023/02/19 09:17:17;;;;;;;9.07;4.72;;;;;;;15.96;34.29;99673.16;5033100;28;20029;-79
2023/02/19 09:19:42;;;;;;;6.80;4.90;;;;;;;16.24;34.00;99677.38;5034423;28;20453;-80
2023/02/19 09:22:07;;;;;;;8.40;4.90;;;;;;;16.47;33.65;99709.69;5034060;28;20049;-80
2023/02/19 09:24:33;;;;;;;6.70;4.93;;;;;;;16.79;33.71;99754.03;5034152;28;20021;-81
2023/02/19 09:26:58;;;;;;;10.00;5.30;;;;;;;17.03;33.43;99800.50;5034252;28;20028;-80
2023/02/19 09:29:25;;;;;;;5.65;4.53;;;;;;;16.79;33.57;99735.38;5032965;28;20017;-80
2023/02/19 09:31:54;;;;;;;5.40;4.05;;;;;;;17.12;33.63;99772.56;5032818;28;20025;-80
2023/02/19 09:34:20;;;;;;;5.65;4.00;;;;;;;16.83;33.52;99746.44;5032926;28;20032;-80
2023/02/19 09:36:48;;;;;;;6.35;4.38;;;;;;;16.56;33.51;99684.41;5034031;28;20021;-79
2023/02/19 09:39:13;;;;;;;6.50;4.45;;;;;;;16.74;33.56;99691.72;5034024;28;20021;-80
2023/02/19 09:42:02;;;;;;;4.82;3.97;;;;;;;17.31;32.87;99768.13;5034184;28;20075;-80
2023/02/19 09:44:36;;;;;;;7.15;4.00;;;;;;;17.39;33.14;99762.50;5033817;28;20018;-80
2023/02/19 09:47:12;;;;;;;5.50;4.85;;;;;;;16.81;33.22;99660.50;5033897;28;20096;-80
2023/02/19 09:49:48;;;;;;;5.53;4.05;;;;;;;17.56;33.41;99765.47;5033773;28;20018;-80
2023/02/19 09:52:26;;;;;;;7.72;4.35;;;;;;;17.61;33.35;99764.81;5032342;28;20052;-80
2023/02/19 09:54:56;;;;;;;7.55;4.32;;;;;;;17.00;33.20;99672.88;5030899;28;20041;-80
2023/02/19 09:57:24;;;;;;;6.22;4.15;;;;;;;16.90;32.93;99631.72;5032249;28;20080;-80
2023/02/19 09:59:53;;;;;;;7.00;4.88;;;;;;;17.83;32.90;99770.59;5033411;28;20028;-80
2023/02/19 10:02:23;;;;;;;4.68;4.10;;;;;;;17.88;32.84;99763.59;5033539;28;20083;-79
2023/02/19 10:04:50;;;;;;;6.10;4.57;;;;;;;17.63;32.61;99717.34;5032206;28;20040;-80
2023/02/19 10:07:19;;;;;;;6.22;4.20;;;;;;;18.04;32.58;99764.88;5033315;28;20014;-80
2023/02/19 10:09:51;;;;;;;6.25;4.68;;;;;;;17.93;32.34;99731.69;5032017;28;20025;-80
2023/02/19 10:12:31;;;;;;;8.57;4.80;;;;;;;18.20;32.45;99768.81;5033640;28;20028;-80
2023/02/19 10:15:09;;;;;;;5.35;4.78;;;;;;;17.92;31.87;99703.34;5033396;28;20495;-80
2023/02/19 10:17:36;;;;;;;4.68;4.18;;;;;;;17.82;32.48;99686.19;5033283;28;20021;-80
2023/02/19 10:20:03;;;;;;;6.22;4.60;;;;;;;18.40;32.36;99758.72;5031971;28;20075;-80
2023/02/19 10:22:30;;;;;;;5.18;4.43;;;;;;;17.85;32.31;99669.75;5032885;28;20037;-80
2023/02/19 10:24:56;;;;;;;5.70;4.38;;;;;;;18.57;32.31;99751.72;5032986;28;20021;-80
2023/02/19 10:27:25;;;;;;;5.35;4.25;;;;;;;18.04;31.90;99650.81;5031728;28;20021;-80
2023/02/19 10:29:51;;;;;;;6.22;4.65;;;;;;;18.01;31.95;99631.75;5032779;28;20147;-80
2023/02/19 10:32:22;;;;;;;7.53;4.20;;;;;;;18.77;31.74;99730.13;5032856;28;20026;-80
2023/02/19 10:35:17;;;;;;;5.82;5.05;;;;;;;18.66;31.02;99696.13;5033115;28;20025;-80
2023/02/19 10:37:49;;;;;;;7.20;4.50;;;;;;;18.14;31.70;99596.03;5024371;28;20029;-81
2023/02/19 10:40:19;;;;;;;;;;;;;;;18.89;31.39;99708.78;5033280;28;20055;-80
2023/02/19 10:42:47;;;;;;;4.78;4.13;;;;;;;18.99;31.13;99728.59;5032708;28;19915;-80
2023/02/19 10:45:37;;;;;;;5.10;3.97;;;;;;;19.05;31.13;99716.16;5032925;28;20098;-80
2023/02/19 10:48:04;;;;;;;6.30;4.70;;;;;;;18.66;30.73;99680.09;5032344;28;20053;-80
2023/02/19 10:50:38;;;;;;;5.15;4.25;;;;;;;19.17;30.25;99719.66;5032642;28;20029;-79
2023/02/19 10:53:04;;;;;;;6.40;4.47;;;;;;;18.36;30.75;99565.88;5031082;28;20022;-80
2023/02/19 10:55:32;;;;;;;5.55;4.70;;;;;;;19.32;30.68;99695.13;5032544;28;20033;-80
2023/02/19 10:58:14;;;;;;;4.90;4.45;;;;;;;19.07;30.88;99657.84;5032260;28;20562;-81
2023/02/19 11:00:39;;;;;;;4.57;4.00;;;;;;;19.08;30.51;99634.59;5032179;28;20029;-80
2023/02/19 11:03:20;;;;;;;4.60;4.10;;;;;;;19.31;30.56;99650.66;5032367;28;20022;-79
2023/02/19 11:06:07;;;;;;;5.55;4.20;;;;;;;19.29;30.10;99631.34;5032324;28;20039;-79
2023/02/19 11:08:48;;;;;;;7.05;4.88;;;;;;;19.56;30.18;99659.34;5032327;28;20121;-80
2023/02/19 11:11:35;;;;;;;6.43;4.57;;;;;;;19.51;30.21;99647.66;5032313;28;20109;-80
2023/02/19 11:14:18;;;;;;;9.18;5.20;;;;;;;19.72;30.04;99668.53;5032265;28;20568;-80
2023/02/19 11:16:47;;;;;;;8.45;5.25;;;;;;;19.74;30.25;99669.13;5032290;28;20104;-80
2023/02/19 11:19:37;;;;;;;5.10;4.53;;;;;;;19.87;29.80;99678.75;5032242;28;20025;-80
2023/02/19 11:22:19;;;;;;;6.65;4.35;;;;;;;19.86;30.20;99679.81;5032200;28;20145;-78
2023/02/19 11:24:50;;;;;;;5.70;4.53;;;;;;;19.89;29.99;99680.16;5032151;28;20485;-79
2023/02/19 11:27:20;;;;;;;5.38;4.47;;;;;;;18.83;30.25;99515.22;5032042;28;20029;-79
2023/02/19 11:29:45;;;;;;;5.55;3.92;;;;;;;19.27;30.34;99574.53;5031898;28;20041;-80
2023/02/19 11:32:28;;;;;;;5.28;4.30;;;;;;;19.20;30.00;99553.25;5030711;28;20034;-80
2023/02/19 11:35:14;;;;;;;4.97;4.10;;;;;;;19.79;29.79;99658.50;5030674;28;20025;-80
2023/02/19 11:37:52;;;;;;;4.70;3.70;;;;;;;19.72;30.21;99643.59;5030339;28;20028;-80
2023/02/19 11:40:23;;;;;;;5.82;4.38;;;;;;;18.53;30.29;99450.25;5031936;28;20033;-79
2023/02/19 11:43:04;;;;;;;4.40;3.97;;;;;;;19.14;30.42;99559.53;5031731;28;20026;-80
2023/02/19 11:45:56;;;;;;;5.07;4.25;;;;;;;19.73;30.22;99643.38;5031750;28;20032;-80
2023/02/19 11:48:58;;;;;;;4.75;4.10;;;;;;;19.71;30.87;99636.63;5031703;28;20426;-79
2023/02/19 11:51:52;;;;;;;5.03;4.10;;;;;;;19.69;30.76;99636.84;5030526;28;20091;-80
2023/02/19 11:54:23;;;;;;;4.68;4.00;;;;;;;19.70;30.68;99632.31;5031483;28;20068;-80
2023/02/19 11:57:04;;;;;;;4.75;3.97;;;;;;;19.43;30.56;99600.63;5031759;28;20091;-80
2023/02/19 11:59:54;;;;;;;5.18;4.68;;;;;;;19.62;30.61;99618.22;5031508;28;20033;-80